Jonancy, Kentucky
Current Conditions -  °F | °C
As of 8:15 AM on Thursday 30 Oct 2014 (Local Time) from KPBX Reporting Station
Clear Clear  
Wind Chill: 38°   Ceiling: Unl
Heat Index: 38°   Visibility: 10mi
Dew Point: 34°   Wind: 0mph
Humidity: 84%   Direction: NA
Pressure: 30.13"   Gusts: NA
Location:  37.32°N, 82.58°W
Report Text: KPBX 301215Z AUTO 00000KT 10SM CLR 04/01 A3013 RMK AO2 T00350010
Loading
Personal Weather Stations






























Interactive Weather Map
Tropical Storm Tracking
New forecast layout! Learn more

10-Day Weather Forecast

Advertisements
Track Severe Weather on mobile